Time;durP1;ratioP1;P1;durP2;ratioP2;P2;SDS_P1;SDS_P2;PMS_P1;PMS_P2;Temp;Humidity;BMP_temperature;BMP_pressure;BME280_temperature;BME280_humidity;BME280_pressure;Samples;Min_cycle;Max_cycle;Signal;HPM_P1;HPM_P2
2022/05/24 00:00:56;;;;;;;1.73;1.60;;;;;23.10;99081.00;;;;2066144;28;20211;-59
2022/05/24 00:01:56;;;;;;;1.37;1.23;;;;;23.10;99082.00;;;;2070671;28;20214;-57
2022/05/24 00:02:57;;;;;;;1.43;1.30;;;;;23.10;99090.00;;;;2075207;28;20207;-59
2022/05/24 00:03:57;;;;;;;1.50;1.40;;;;;23.10;99081.00;;;;2069529;28;20639;-62
2022/05/24 00:04:58;;;;;;;1.57;1.47;;;;;23.10;99081.00;;;;2071365;28;20217;-57
2022/05/24 00:05:58;;;;;;;1.80;1.63;;;;;23.10;99079.00;;;;2071187;28;20233;-57
2022/05/24 00:06:58;;;;;;;1.53;1.43;;;;;23.10;99085.00;;;;2075450;28;20287;-57
2022/05/24 00:07:59;;;;;;;1.67;1.57;;;;;23.10;99082.00;;;;2072710;28;20306;-56
2022/05/24 00:08:59;;;;;;;1.80;1.70;;;;;23.10;99080.00;;;;2074317;28;20210;-60
2022/05/24 00:10:00;;;;;;;1.70;1.60;;;;;23.10;99088.00;;;;2070794;28;20212;-58
2022/05/24 00:11:01;;;;;;;1.55;1.45;;;;;23.10;99082.00;;;;2079438;28;20692;-57
2022/05/24 00:12:01;;;;;;;1.50;1.40;;;;;23.10;99085.00;;;;2077051;28;20206;-57
2022/05/24 00:13:01;;;;;;;1.70;1.60;;;;;23.10;99081.00;;;;2078057;28;20221;-59
2022/05/24 00:14:02;;;;;;;1.50;1.40;;;;;23.10;99088.00;;;;2075113;28;20214;-57
2022/05/24 00:15:23;;;;;;;2.10;1.40;;;;;23.10;99078.00;;;;2063272;28;20226;-57
2022/05/24 00:16:23;;;;;;;1.50;1.40;;;;;23.10;99086.00;;;;2073492;28;20725;-55
2022/05/24 00:17:23;;;;;;;1.90;1.80;;;;;23.10;99078.00;;;;2071337;28;20221;-59
2022/05/24 00:18:28;;;;;;;1.63;1.43;;;;;23.10;99084.00;;;;2064509;28;20237;-60
2022/05/24 00:19:28;;;;;;;2.28;1.70;;;;;23.10;99089.00;;;;2062746;28;20301;-57
2022/05/24 00:20:37;;;;;;;1.77;1.60;;;;;23.10;99088.00;;;;2066694;28;20216;-57
2022/05/24 00:21:37;;;;;;;1.73;1.50;;;;;23.10;99080.00;;;;2079155;28;20225;-57
2022/05/24 00:22:38;;;;;;;1.57;1.47;;;;;23.10;99088.00;;;;2076349;28;20206;-57
2022/05/24 00:23:38;;;;;;;1.50;1.40;;;;;23.10;99075.00;;;;2076593;28;20233;-60
2022/05/24 00:24:38;;;;;;;1.67;1.47;;;;;23.10;99080.00;;;;2079854;28;20209;-58
2022/05/24 00:25:41;;;;;;;1.80;1.60;;;;;23.10;99079.00;;;;2072476;28;20221;-57
2022/05/24 00:26:41;;;;;;;1.50;1.40;;;;;23.10;99081.00;;;;2073112;28;20212;-57
2022/05/24 00:27:42;;;;;;;1.70;1.60;;;;;23.10;99076.00;;;;2073786;28;20590;-56
2022/05/24 00:28:42;;;;;;;2.07;1.87;;;;;23.10;99079.00;;;;2067396;28;20659;-59
2022/05/24 00:29:42;;;;;;;2.00;1.80;;;;;23.10;99075.00;;;;2071346;28;20657;-58
2022/05/24 00:30:44;;;;;;;1.53;1.33;;;;;23.10;99081.00;;;;2086581;28;20244;-61
2022/05/24 00:31:44;;;;;;;2.00;1.38;;;;;23.10;99077.00;;;;2064732;28;20207;-61
2022/05/24 00:32:45;;;;;;;1.80;1.50;;;;;23.10;99076.00;;;;2069510;28;20202;-58
2022/05/24 00:33:45;;;;;;;1.77;1.67;;;;;23.10;99082.00;;;;2074821;28;20220;-56
2022/05/24 00:34:45;;;;;;;1.77;1.67;;;;;23.10;99081.00;;;;2071795;28;20203;-56
2022/05/24 00:35:46;;;;;;;1.50;1.40;;;;;23.10;99084.00;;;;2076780;28;20205;-57
2022/05/24 00:36:46;;;;;;;1.73;1.60;;;;;23.10;99081.00;;;;2080188;28;20210;-56
2022/05/24 00:37:46;;;;;;;1.60;1.50;;;;;22.90;99092.00;;;;2076198;28;20209;-56
2022/05/24 00:38:47;;;;;;;1.77;1.50;;;;;23.10;99082.00;;;;2067448;28;20211;-60
2022/05/24 00:39:47;;;;;;;2.10;1.90;;;;;23.10;99085.00;;;;2067394;28;20211;-58
2022/05/24 00:41:22;;;;;;;1.80;1.70;;;;;23.10;99087.00;;;;2076744;28;20213;-56
2022/05/24 00:42:25;;;;;;;2.15;1.70;;;;;23.10;99082.00;;;;2058483;28;20331;-63
2022/05/24 00:43:35;;;;;;;2.00;1.60;;;;;23.10;99084.00;;;;2060387;28;20271;-58
2022/05/24 00:44:38;;;;;;;1.77;1.67;;;;;23.10;99080.00;;;;2049357;28;20699;-60
2022/05/24 00:45:43;;;;;;;1.70;1.60;;;;;23.10;99079.00;;;;2050616;28;20253;-57
2022/05/24 00:46:53;;;;;;;1.60;1.50;;;;;23.10;99072.00;;;;2073021;28;20720;-58
2022/05/24 00:47:55;;;;;;;1.70;1.60;;;;;23.10;99078.00;;;;2068840;28;20760;-61
2022/05/24 00:49:03;;;;;;;1.70;1.60;;;;;23.10;99085.00;;;;2079004;28;20217;-59
2022/05/24 00:50:13;;;;;;;1.63;1.52;;;;;23.10;99077.00;;;;2070715;28;20222;-55
2022/05/24 00:51:13;;;;;;;1.80;1.70;;;;;23.10;99073.00;;;;2069178;28;20307;-59
2022/05/24 00:52:17;;;;;;;1.80;1.70;;;;;23.10;99076.00;;;;2071928;28;20218;-59
2022/05/24 00:53:33;;;;;;;1.95;1.73;;;;;23.10;99076.00;;;;2071221;28;20222;-57
2022/05/24 00:54:33;;;;;;;1.63;1.52;;;;;23.10;99069.00;;;;2060283;28;20851;-61
2022/05/24 00:55:41;;;;;;;2.30;2.10;;;;;23.10;99068.00;;;;2066573;28;20241;-61
2022/05/24 00:56:52;;;;;;;1.80;1.70;;;;;23.10;99067.00;;;;2062733;28;20211;-57
2022/05/24 00:57:54;;;;;;;1.70;1.60;;;;;23.10;99068.00;;;;2050268;28;20320;-57
2022/05/24 00:59:00;;;;;;;1.92;1.70;;;;;23.10;99070.00;;;;2058220;28;20222;-57
2022/05/24 01:00:06;;;;;;;2.08;1.58;;;;;23.10;99079.00;;;;2070374;28;20268;-62
2022/05/24 01:01:25;;;;;;;2.30;2.10;;;;;23.10;99056.00;;;;2073797;28;20655;-57
2022/05/24 01:02:25;;;;;;;1.90;1.80;;;;;23.10;99073.00;;;;2062886;28;20298;-57
2022/05/24 01:03:26;;;;;;;2.03;1.83;;;;;23.10;99067.00;;;;2068241;28;20678;-57
2022/05/24 01:04:26;;;;;;;1.67;1.57;;;;;23.10;99069.00;;;;2070885;28;20249;-60
2022/05/24 01:05:28;;;;;;;2.10;1.90;;;;;23.10;99058.00;;;;2070600;28;20663;-60
2022/05/24 01:06:28;;;;;;;1.73;1.55;;;;;23.10;99055.00;;;;2076842;28;20267;-61
2022/05/24 01:07:29;;;;;;;2.73;1.80;;;;;23.10;99061.00;;;;2064013;28;20269;-59
2022/05/24 01:08:32;;;;;;;2.10;2.00;;;;;23.10;99054.00;;;;2078686;28;20686;-58
2022/05/24 01:09:51;;;;;;;2.00;1.85;;;;;23.10;99065.00;;;;2078475;28;20237;-57
2022/05/24 01:10:52;;;;;;;2.28;2.08;;;;;23.10;99061.00;;;;2077936;28;20217;-57
2022/05/24 01:11:55;;;;;;;1.70;1.60;;;;;23.10;99061.00;;;;2078416;28;20221;-57
2022/05/24 01:13:04;;;;;;;2.28;1.67;;;;;23.10;99056.00;;;;2070497;28;20675;-57
2022/05/24 01:14:04;;;;;;;2.00;1.80;;;;;23.10;99062.00;;;;2071458;28;20780;-57
2022/05/24 01:15:06;;;;;;;1.87;1.77;;;;;23.00;99057.00;;;;2070182;28;20654;-57
2022/05/24 01:16:06;;;;;;;2.10;1.92;;;;;23.00;99054.00;;;;2069067;28;20277;-57
2022/05/24 01:17:06;;;;;;;1.97;1.87;;;;;23.00;99052.00;;;;2062140;28;20214;-60
2022/05/24 01:18:07;;;;;;;1.63;1.53;;;;;23.10;99061.00;;;;2070114;28;20221;-56
2022/05/24 01:19:09;;;;;;;1.90;1.80;;;;;23.00;99060.00;;;;2078200;28;20225;-57
2022/05/24 01:20:10;;;;;;;1.83;1.73;;;;;23.00;99058.00;;;;2070098;28;20214;-55
2022/05/24 01:21:13;;;;;;;1.80;1.70;;;;;23.00;99060.00;;;;2069228;28;20722;-57
2022/05/24 01:22:19;;;;;;;1.60;1.50;;;;;23.00;99053.00;;;;2071008;28;20694;-56
2022/05/24 01:23:57;;;;;;;2.15;1.95;;;;;23.00;99055.00;;;;2071062;28;20215;-56
2022/05/24 01:25:16;;;;;;;2.00;1.90;;;;;23.00;99071.00;;;;2071985;28;20217;-57
2022/05/24 01:26:37;;;;;;;1.98;1.70;;;;;23.00;99058.00;;;;2073328;28;20210;-56
2022/05/24 01:27:37;;;;;;;1.63;1.52;;;;;23.00;99057.00;;;;2071744;28;20201;-60
2022/05/24 01:28:51;;;;;;;2.20;2.00;;;;;23.00;99050.00;;;;2063485;28;20269;-57
2022/05/24 01:29:52;;;;;;;2.08;1.88;;;;;23.10;99057.00;;;;2068925;28;20682;-58
2022/05/24 01:30:53;;;;;;;2.00;1.90;;;;;23.00;99042.00;;;;2068974;28;20252;-56
2022/05/24 01:37:10;;;;;;;1.90;1.80;;;;;23.00;99058.00;;;;2071435;28;20676;-56
2022/05/24 01:38:12;;;;;;;1.80;1.70;;;;;23.00;99037.00;;;;2070498;28;20230;-60
2022/05/24 01:39:13;;;;;;;1.75;1.65;;;;;23.00;99053.00;;;;2061733;28;20219;-58
2022/05/24 01:40:13;;;;;;;1.80;1.70;;;;;23.00;99056.00;;;;2054515;28;20326;-58
2022/05/24 01:41:25;;;;;;;2.27;2.17;;;;;23.00;99052.00;;;;2055430;28;20230;-57
2022/05/24 01:42:25;;;;;;;2.30;2.10;;;;;23.00;99062.00;;;;2063872;28;20218;-57
2022/05/24 01:43:26;;;;;;;2.10;1.90;;;;;23.00;99060.00;;;;2062343;28;20386;-56
2022/05/24 01:44:32;;;;;;;2.10;1.90;;;;;23.00;99055.00;;;;2058003;28;20219;-57
2022/05/24 01:45:55;;;;;;;2.33;2.13;;;;;23.10;99065.00;;;;2057015;28;20219;-60
2022/05/24 01:46:56;;;;;;;2.15;1.95;;;;;23.10;99058.00;;;;2065334;28;20214;-57
2022/05/24 01:47:58;;;;;;;2.20;2.00;;;;;23.00;99062.00;;;;2059293;28;20204;-56
2022/05/24 01:49:08;;;;;;;2.10;1.95;;;;;23.00;99053.00;;;;2070466;28;20202;-59
2022/05/24 01:50:10;;;;;;;2.30;2.10;;;;;23.00;99062.00;;;;2065403;28;20214;-57
2022/05/24 01:51:11;;;;;;;1.77;1.67;;;;;23.00;99065.00;;;;2050391;28;20212;-62
2022/05/24 01:52:23;;;;;;;2.38;2.17;;;;;23.00;99048.00;;;;2066314;28;20685;-55
2022/05/24 01:53:27;;;;;;;2.00;1.90;;;;;23.00;99051.00;;;;2062163;28;20214;-57
2022/05/24 01:54:28;;;;;;;2.20;2.03;;;;;23.00;99054.00;;;;2066482;28;20225;-57
2022/05/24 01:55:37;;;;;;;2.00;1.80;;;;;23.00;99050.00;;;;2063872;28;20956;-57
2022/05/24 01:56:46;;;;;;;2.00;1.80;;;;;23.00;99047.00;;;;2064561;28;20973;-58
2022/05/24 01:57:52;;;;;;;2.05;1.65;;;;;23.00;99048.00;;;;2051102;28;20251;-59
2022/05/24 01:58:53;;;;;;;2.28;2.08;;;;;23.00;99044.00;;;;2070452;28;20217;-57
2022/05/24 01:59:55;;;;;;;1.90;1.80;;;;;23.00;99034.00;;;;2078143;28;20205;-57
2022/05/24 02:00:58;;;;;;;1.98;1.88;;;;;23.00;99044.00;;;;2077846;28;20217;-58
2022/05/24 02:01:59;;;;;;;2.72;2.00;;;;;23.00;99039.00;;;;2062020;28;20219;-57
2022/05/24 02:02:59;;;;;;;1.50;1.40;;;;;23.00;99052.00;;;;2069048;28;20228;-57
2022/05/24 02:04:01;;;;;;;1.83;1.73;;;;;23.10;99041.00;;;;2086274;28;20682;-57
2022/05/24 02:05:01;;;;;;;1.98;1.85;;;;;23.10;99051.00;;;;2078025;28;20275;-58
2022/05/24 02:06:20;;;;;;;3.50;2.20;;;;;23.00;99041.00;;;;2077452;28;20209;-57
2022/05/24 02:07:23;;;;;;;1.95;1.65;;;;;23.00;99042.00;;;;2063658;28;20943;-57
2022/05/24 02:08:23;;;;;;;2.08;1.95;;;;;23.00;99050.00;;;;2062939;28;20406;-58
2022/05/24 02:09:24;;;;;;;1.90;1.80;;;;;23.00;99053.00;;;;2078144;28;20729;-57
2022/05/24 02:10:24;;;;;;;2.20;2.10;;;;;23.00;99047.00;;;;2078884;28;20209;-57
2022/05/24 02:11:27;;;;;;;1.83;1.73;;;;;23.00;99053.00;;;;2065191;28;20202;-58
2022/05/24 02:12:36;;;;;;;1.83;1.73;;;;;23.00;99048.00;;;;2062154;28;20575;-58
2022/05/24 02:13:39;;;;;;;2.13;2.00;;;;;23.00;99051.00;;;;2063092;28;20222;-56
2022/05/24 02:14:42;;;;;;;1.67;1.58;;;;;23.00;99043.00;;;;2061819;28;20219;-55
2022/05/24 02:15:43;;;;;;;2.05;1.85;;;;;23.00;99048.00;;;;2061199;28;21366;-57
2022/05/24 02:16:49;;;;;;;1.92;1.80;;;;;23.00;99052.00;;;;2053951;28;20227;-55
2022/05/24 02:18:04;;;;;;;1.77;1.67;;;;;23.00;99057.00;;;;2054898;28;20298;-57
2022/05/24 02:19:04;;;;;;;2.28;2.03;;;;;23.00;99043.00;;;;2070212;28;20308;-55
2022/05/24 02:20:05;;;;;;;2.30;2.10;;;;;23.00;99052.00;;;;2061856;28;20582;-56
2022/05/24 02:21:05;;;;;;;1.70;1.50;;;;;23.00;99050.00;;;;2053747;28;20286;-56
2022/05/24 02:22:09;;;;;;;1.90;1.80;;;;;23.00;99050.00;;;;2061732;28;20613;-58
2022/05/24 02:23:10;;;;;;;2.92;1.90;;;;;23.00;99040.00;;;;2062056;28;20746;-57
2022/05/24 02:24:21;;;;;;;2.05;1.95;;;;;23.00;99044.00;;;;2061490;28;20223;-57
2022/05/24 02:25:35;;;;;;;2.45;1.88;;;;;23.00;99044.00;;;;2069080;28;20748;-56
2022/05/24 02:26:35;;;;;;;2.30;2.10;;;;;23.00;99037.00;;;;2069967;28;20210;-56
2022/05/24 02:27:40;;;;;;;2.10;1.83;;;;;23.00;99043.00;;;;2069846;28;20291;-56
2022/05/24 02:28:40;;;;;;;1.75;1.65;;;;;23.00;99054.00;;;;2069485;28;20258;-58
2022/05/24 02:29:41;;;;;;;1.67;1.57;;;;;23.00;99043.00;;;;2053777;28;20219;-57
2022/05/24 02:30:46;;;;;;;1.80;1.70;;;;;23.00;99041.00;;;;2061745;28;20218;-58
2022/05/24 02:31:46;;;;;;;1.75;1.65;;;;;23.00;99048.00;;;;2077239;28;20704;-58
2022/05/24 02:32:46;;;;;;;1.87;1.77;;;;;22.90;99055.00;;;;2077858;28;20224;-58
2022/05/24 02:33:47;;;;;;;1.80;1.70;;;;;23.00;99053.00;;;;2069860;28;20272;-59
2022/05/24 02:34:47;;;;;;;2.33;2.13;;;;;23.00;99059.00;;;;2061510;28;20211;-62
2022/05/24 02:35:48;;;;;;;1.93;1.83;;;;;23.00;99057.00;;;;2072542;28;20213;-61
2022/05/24 02:36:48;;;;;;;2.27;2.00;;;;;23.00;99053.00;;;;2077720;28;21135;-58
2022/05/24 02:37:48;;;;;;;1.97;1.60;;;;;23.00;99063.00;;;;2077958;28;20980;-58
2022/05/24 02:38:49;;;;;;;1.80;1.70;;;;;23.00;99056.00;;;;2076832;28;20218;-58
2022/05/24 02:42:27;;;;;;;2.40;1.80;;;;;23.00;99050.00;;;;2078538;28;20209;-58
2022/05/24 02:43:27;;;;;;;1.80;1.70;;;;;23.00;99054.00;;;;2069087;28;20237;-58
2022/05/24 02:44:27;;;;;;;1.70;1.60;;;;;23.00;99060.00;;;;2069889;28;20274;-58
2022/05/24 02:45:28;;;;;;;2.20;2.00;;;;;23.00;99063.00;;;;2076860;28;20217;-58
2022/05/24 02:46:32;;;;;;;1.83;1.73;;;;;23.00;99061.00;;;;2078551;28;20205;-58
2022/05/24 02:47:33;;;;;;;2.13;1.92;;;;;23.00;99058.00;;;;2069389;28;20729;-58
2022/05/24 02:48:34;;;;;;;1.80;1.70;;;;;23.00;99066.00;;;;2069319;28;20217;-58
2022/05/24 02:49:34;;;;;;;2.22;2.03;;;;;23.00;99061.00;;;;2069826;28;20318;-58
2022/05/24 02:50:35;;;;;;;2.00;1.90;;;;;23.00;99056.00;;;;2068439;28;20689;-58
2022/05/24 02:51:35;;;;;;;1.97;1.77;;;;;23.00;99060.00;;;;2077743;28;20754;-58
2022/05/24 02:52:40;;;;;;;1.80;1.70;;;;;23.00;99058.00;;;;2061772;28;20214;-58
2022/05/24 02:53:41;;;;;;;1.95;1.75;;;;;23.00;99056.00;;;;2070186;28;21297;-57
2022/05/24 02:54:41;;;;;;;2.40;2.10;;;;;23.00;99071.00;;;;2069652;28;20222;-57
2022/05/24 02:55:42;;;;;;;1.90;1.80;;;;;23.00;99061.00;;;;2074556;28;21090;-61
2022/05/24 02:56:44;;;;;;;1.90;1.80;;;;;23.00;99062.00;;;;2073997;28;20311;-58
2022/05/24 02:57:44;;;;;;;2.17;1.90;;;;;23.00;99067.00;;;;2070454;28;20222;-58
2022/05/24 02:58:44;;;;;;;1.97;1.83;;;;;23.00;99066.00;;;;2073935;28;20262;-59
2022/05/24 02:59:45;;;;;;;1.60;1.50;;;;;23.00;99067.00;;;;2078620;28;20217;-59
2022/05/24 03:00:45;;;;;;;1.60;1.50;;;;;23.00;99067.00;;;;2078374;28;20214;-58
2022/05/24 03:01:45;;;;;;;1.90;1.80;;;;;23.00;99074.00;;;;2078299;28;20237;-58
2022/05/24 03:02:46;;;;;;;1.90;1.60;;;;;23.00;99079.00;;;;2071930;28;20753;-58
2022/05/24 03:03:47;;;;;;;1.90;1.80;;;;;23.00;99066.00;;;;2070076;28;20694;-58
2022/05/24 03:04:47;;;;;;;1.90;1.80;;;;;23.00;99066.00;;;;2069764;28;20718;-58
2022/05/24 03:05:48;;;;;;;2.20;2.00;;;;;23.00;99066.00;;;;2068980;28;20309;-59
2022/05/24 03:09:35;;;;;;;1.50;1.40;;;;;23.00;99071.00;;;;2069865;28;20230;-59
2022/05/24 03:10:35;;;;;;;1.90;1.80;;;;;23.00;99064.00;;;;2071229;28;20206;-59
2022/05/24 03:14:16;;;;;;;1.70;1.60;;;;;23.00;99058.00;;;;2078273;28;20598;-58
2022/05/24 03:15:17;;;;;;;2.30;1.83;;;;;23.00;99050.00;;;;2077593;28;20220;-58
2022/05/24 03:16:17;;;;;;;2.07;1.60;;;;;23.00;99055.00;;;;2077312;28;20216;-58
2022/05/24 03:17:17;;;;;;;1.60;1.50;;;;;23.00;99051.00;;;;2078331;28;20209;-58
2022/05/24 03:18:18;;;;;;;1.80;1.70;;;;;23.00;99061.00;;;;2077619;28;20338;-58
2022/05/24 03:19:19;;;;;;;1.80;1.70;;;;;23.00;99061.00;;;;2069728;28;20214;-58
2022/05/24 03:20:20;;;;;;;1.77;1.67;;;;;23.00;99059.00;;;;2074570;28;20214;-59
2022/05/24 03:21:20;;;;;;;1.88;1.63;;;;;23.00;99061.00;;;;2078093;28;20238;-58
2022/05/24 03:22:21;;;;;;;1.80;1.70;;;;;23.00;99062.00;;;;2078581;28;20296;-58
2022/05/24 03:23:21;;;;;;;2.27;1.90;;;;;23.00;99061.00;;;;2076143;28;20289;-58
2022/05/24 03:24:21;;;;;;;2.53;2.07;;;;;23.00;99066.00;;;;2067662;28;20267;-57
2022/05/24 03:25:22;;;;;;;1.70;1.50;;;;;23.00;99066.00;;;;2077450;28;20218;-58
2022/05/24 03:26:22;;;;;;;2.10;2.00;;;;;23.00;99065.00;;;;2069608;28;20210;-58
2022/05/24 03:27:22;;;;;;;2.27;2.00;;;;;23.00;99068.00;;;;2070294;28;20222;-58
2022/05/24 03:28:23;;;;;;;1.90;1.80;;;;;23.00;99072.00;;;;2070333;28;20217;-58
2022/05/24 03:29:23;;;;;;;2.10;2.00;;;;;23.00;99062.00;;;;2070143;28;20214;-58
2022/05/24 03:30:24;;;;;;;1.80;1.60;;;;;23.00;99065.00;;;;2069986;28;20245;-58
2022/05/24 03:31:24;;;;;;;1.73;1.63;;;;;23.00;99064.00;;;;2068751;28;20218;-57
2022/05/24 03:32:24;;;;;;;1.50;1.40;;;;;23.00;99064.00;;;;2068099;28;20236;-56
2022/05/24 03:33:25;;;;;;;1.70;1.60;;;;;23.00;99065.00;;;;2069749;28;20249;-57
2022/05/24 03:34:25;;;;;;;1.80;1.70;;;;;23.00;99063.00;;;;2065788;28;20214;-58
2022/05/24 03:35:26;;;;;;;1.97;1.80;;;;;23.00;99069.00;;;;2059127;28;20293;-64
2022/05/24 03:36:26;;;;;;;1.97;1.87;;;;;23.00;99067.00;;;;2070755;28;20221;-57
2022/05/24 03:37:26;;;;;;;1.60;1.50;;;;;23.00;99060.00;;;;2078899;28;20205;-57
2022/05/24 03:38:28;;;;;;;3.10;1.60;;;;;23.00;99069.00;;;;2079189;28;20344;-60
2022/05/24 03:39:28;;;;;;;1.83;1.73;;;;;23.00;99071.00;;;;2079847;28;20217;-56
2022/05/24 03:40:29;;;;;;;1.80;1.70;;;;;23.00;99071.00;;;;2079755;28;20213;-57
2022/05/24 03:41:29;;;;;;;1.93;1.60;;;;;23.00;99073.00;;;;2079135;28;20249;-58
2022/05/24 03:42:30;;;;;;;1.80;1.60;;;;;23.00;99075.00;;;;2070729;28;20451;-58
2022/05/24 03:43:30;;;;;;;1.80;1.70;;;;;23.00;99079.00;;;;2079314;28;20210;-58
2022/05/24 03:44:30;;;;;;;2.20;1.70;;;;;23.00;99074.00;;;;2079984;28;20220;-57
2022/05/24 03:45:31;;;;;;;2.07;1.87;;;;;23.00;99077.00;;;;2079216;28;20267;-58
2022/05/24 03:46:32;;;;;;;2.37;1.80;;;;;23.00;99076.00;;;;2079845;28;20236;-58
2022/05/24 03:47:32;;;;;;;2.57;1.60;;;;;23.00;99076.00;;;;2079703;28;20678;-58
2022/05/24 03:48:32;;;;;;;1.97;1.87;;;;;23.00;99083.00;;;;2079917;28;20984;-59
2022/05/24 03:49:33;;;;;;;1.60;1.50;;;;;23.00;99085.00;;;;2070918;28;20242;-56
2022/05/24 03:50:33;;;;;;;1.90;1.80;;;;;23.00;99091.00;;;;2070752;28;20214;-59
2022/05/24 03:51:34;;;;;;;2.00;1.80;;;;;23.00;99093.00;;;;2086828;28;20299;-58
2022/05/24 03:52:34;;;;;;;1.50;1.40;;;;;23.00;99090.00;;;;2079235;28;20210;-55
2022/05/24 03:53:34;;;;;;;1.53;1.43;;;;;23.00;99090.00;;;;2079126;28;20209;-58
2022/05/24 03:54:35;;;;;;;1.80;1.67;;;;;23.00;99098.00;;;;2079638;28;20690;-58
2022/05/24 03:55:35;;;;;;;1.40;1.30;;;;;23.00;99095.00;;;;2077273;28;20263;-56
2022/05/24 03:56:36;;;;;;;1.60;1.50;;;;;23.00;99094.00;;;;2068533;28;20210;-58
2022/05/24 03:58:55;;;;;;;1.67;1.58;;;;;23.00;99099.00;;;;2067625;28;20626;-58
2022/05/24 03:59:55;;;;;;;2.77;1.93;;;;;22.80;99096.00;;;;2071599;28;20230;-58
2022/05/24 04:00:56;;;;;;;1.70;1.60;;;;;23.00;99097.00;;;;2070758;28;20241;-56
2022/05/24 04:01:56;;;;;;;1.73;1.60;;;;;23.00;99091.00;;;;2070555;28;20214;-58
2022/05/24 04:02:57;;;;;;;1.97;1.60;;;;;23.00;99095.00;;;;2071566;28;20230;-59
2022/05/24 04:03:57;;;;;;;1.77;1.63;;;;;23.00;99094.00;;;;2071491;28;20218;-58
2022/05/24 04:04:57;;;;;;;1.53;1.43;;;;;23.00;99085.00;;;;2071543;28;20312;-58
2022/05/24 04:05:58;;;;;;;1.90;1.80;;;;;23.00;99091.00;;;;2070682;28;20222;-57
2022/05/24 04:06:58;;;;;;;1.70;1.33;;;;;23.00;99103.00;;;;2062711;28;20233;-58
2022/05/24 04:07:59;;;;;;;1.70;1.60;;;;;23.00;99100.00;;;;2062694;28;20215;-58
2022/05/24 04:09:00;;;;;;;1.70;1.60;;;;;23.00;99090.00;;;;2086221;28;20221;-59
2022/05/24 04:10:01;;;;;;;1.50;1.40;;;;;23.00;99095.00;;;;2087210;28;20693;-58
2022/05/24 04:11:06;;;;;;;1.70;1.57;;;;;23.00;99102.00;;;;2078737;28;20462;-64
2022/05/24 04:12:07;;;;;;;1.67;1.58;;;;;23.00;99094.00;;;;2079104;28;20742;-58
2022/05/24 04:13:07;;;;;;;1.70;1.60;;;;;23.00;99106.00;;;;2078677;28;20308;-59
2022/05/24 04:14:07;;;;;;;2.10;1.70;;;;;23.00;99105.00;;;;2079485;28;20244;-59
2022/05/24 04:15:08;;;;;;;1.63;1.53;;;;;23.00;99108.00;;;;2078757;28;20317;-59
2022/05/24 04:16:08;;;;;;;1.50;1.40;;;;;23.00;99080.00;;;;2070270;28;20295;-61
2022/05/24 04:17:09;;;;;;;1.73;1.40;;;;;23.00;99106.00;;;;2063001;28;20223;-59
2022/05/24 04:18:09;;;;;;;1.67;1.57;;;;;23.00;99107.00;;;;2070344;28;20218;-57
2022/05/24 04:19:09;;;;;;;1.63;1.53;;;;;23.00;99104.00;;;;2087160;28;20610;-59
2022/05/24 04:20:10;;;;;;;1.57;1.47;;;;;23.00;99104.00;;;;2087188;28;20225;-59
2022/05/24 04:21:11;;;;;;;1.93;1.70;;;;;23.00;99110.00;;;;2078764;28;20233;-59
2022/05/24 04:22:12;;;;;;;1.43;1.33;;;;;23.00;99106.00;;;;2078845;28;20213;-58
2022/05/24 04:23:13;;;;;;;1.30;1.20;;;;;23.00;99112.00;;;;2078975;28;20296;-59
2022/05/24 04:24:13;;;;;;;1.43;1.33;;;;;23.00;99120.00;;;;2070613;28;21137;-58
2022/05/24 04:25:13;;;;;;;1.40;1.30;;;;;23.00;99124.00;;;;2078748;28;20220;-58
2022/05/24 04:26:15;;;;;;;2.33;1.50;;;;;23.00;99120.00;;;;2078237;28;20217;-56
2022/05/24 04:27:16;;;;;;;1.80;1.70;;;;;23.00;99125.00;;;;2062497;28;20203;-58
2022/05/24 04:28:19;;;;;;;1.53;1.30;;;;;23.00;99118.00;;;;2070452;28;20210;-59
2022/05/24 04:29:19;;;;;;;1.63;1.52;;;;;23.00;99121.00;;;;2078845;28;20210;-57
2022/05/24 04:30:19;;;;;;;1.63;1.43;;;;;23.00;99115.00;;;;2077400;28;20591;-57
2022/05/24 04:31:20;;;;;;;1.20;1.10;;;;;23.00;99129.00;;;;2070290;28;20587;-59
2022/05/24 04:32:20;;;;;;;2.53;1.97;;;;;23.00;99134.00;;;;2069352;28;20349;-59
2022/05/24 04:33:21;;;;;;;1.80;1.70;;;;;23.00;99138.00;;;;2078507;28;20693;-57
2022/05/24 04:34:21;;;;;;;1.90;1.70;;;;;23.00;99143.00;;;;2070600;28;20292;-56
2022/05/24 04:35:21;;;;;;;2.10;1.47;;;;;23.00;99145.00;;;;2078204;28;20237;-58
2022/05/24 04:36:22;;;;;;;1.50;1.30;;;;;23.00;99141.00;;;;2078417;28;20293;-58
2022/05/24 04:37:23;;;;;;;1.40;1.30;;;;;23.00;99144.00;;;;2079321;28;20214;-59
2022/05/24 04:38:24;;;;;;;1.80;1.33;;;;;23.00;99147.00;;;;2077828;28;20280;-58
2022/05/24 04:39:24;;;;;;;1.63;1.53;;;;;23.00;99147.00;;;;2062513;28;20504;-58
2022/05/24 04:42:18;;;;;;;1.60;1.23;;;;;23.00;99139.00;;;;2062631;28;25801;-58
2022/05/24 04:43:03;;;;;;;1.40;1.30;;;;;23.00;99129.00;;;;2067668;28;20229;-55
2022/05/24 04:44:04;;;;;;;1.50;1.40;;;;;23.00;99154.00;;;;2055385;28;20226;-57
2022/05/24 04:45:07;;;;;;;1.30;1.20;;;;;23.00;99148.00;;;;2078323;28;20214;-56
2022/05/24 04:46:08;;;;;;;1.35;1.25;;;;;23.00;99147.00;;;;2069450;28;20218;-55
2022/05/24 04:47:08;;;;;;;2.30;1.40;;;;;23.00;99147.00;;;;2062166;28;20593;-58
2022/05/24 04:48:09;;;;;;;1.90;1.53;;;;;23.00;99150.00;;;;2078281;28;20304;-59
2022/05/24 04:49:09;;;;;;;1.53;1.40;;;;;22.90;99144.00;;;;2079349;28;20291;-59
2022/05/24 04:50:10;;;;;;;1.97;1.70;;;;;23.00;99150.00;;;;2078699;28;20581;-58
2022/05/24 04:51:11;;;;;;;1.38;1.27;;;;;23.00;99150.00;;;;2070483;28;20225;-58
2022/05/24 04:52:11;;;;;;;1.40;1.30;;;;;23.00;99149.00;;;;2078087;28;20217;-58
2022/05/24 04:53:11;;;;;;;2.40;1.50;;;;;23.00;99147.00;;;;2070371;28;20217;-59
2022/05/24 04:54:12;;;;;;;2.30;1.67;;;;;23.00;99144.00;;;;2062157;28;20223;-59
2022/05/24 04:55:13;;;;;;;1.47;1.37;;;;;23.00;99141.00;;;;2078553;28;20206;-57
2022/05/24 04:56:13;;;;;;;1.80;1.27;;;;;23.00;99134.00;;;;2077896;28;20304;-59
2022/05/24 04:57:14;;;;;;;1.20;1.10;;;;;23.00;99134.00;;;;2078489;28;20475;-57
2022/05/24 04:58:16;;;;;;;1.37;1.27;;;;;22.90;99116.00;;;;2078616;28;20687;-59
2022/05/24 04:59:16;;;;;;;1.77;1.40;;;;;23.00;99129.00;;;;2062487;28;20214;-59
2022/05/24 05:00:17;;;;;;;1.50;1.20;;;;;23.00;99122.00;;;;2070794;28;20210;-57
2022/05/24 05:01:17;;;;;;;1.63;1.53;;;;;23.00;99119.00;;;;2069128;28;20306;-56
2022/05/24 05:02:18;;;;;;;1.37;1.27;;;;;23.00;99123.00;;;;2069554;28;20224;-58
2022/05/24 05:03:19;;;;;;;2.10;1.90;;;;;23.00;99117.00;;;;2054197;28;20727;-56
2022/05/24 05:04:20;;;;;;;1.53;1.43;;;;;22.90;99117.00;;;;2054263;28;20486;-58
2022/05/24 05:05:20;;;;;;;1.77;1.60;;;;;23.00;99118.00;;;;2061908;28;20305;-59
2022/05/24 05:06:20;;;;;;;2.07;1.50;;;;;22.90;99127.00;;;;2062081;28;20225;-59
2022/05/24 05:07:21;;;;;;;1.70;1.60;;;;;23.00;99131.00;;;;2070274;28;20226;-57
2022/05/24 05:08:21;;;;;;;1.93;1.40;;;;;23.00;99137.00;;;;2062336;28;20305;-57
2022/05/24 05:09:22;;;;;;;1.20;1.10;;;;;22.90;99136.00;;;;2062345;28;20842;-58
2022/05/24 05:10:22;;;;;;;1.87;1.47;;;;;22.90;99142.00;;;;2078642;28;20217;-59
2022/05/24 05:11:22;;;;;;;1.30;1.20;;;;;23.00;99140.00;;;;2074754;28;20308;-58
2022/05/24 05:12:25;;;;;;;1.40;1.30;;;;;23.00;99146.00;;;;2071042;28;20222;-58
2022/05/24 05:13:26;;;;;;;1.83;1.60;;;;;22.90;99145.00;;;;2070994;28;20228;-58
2022/05/24 05:14:27;;;;;;;1.27;1.17;;;;;23.00;99147.00;;;;2071012;28;20627;-59
2022/05/24 05:15:27;;;;;;;1.53;1.43;;;;;23.00;99147.00;;;;2069604;28;20233;-56
2022/05/24 05:16:28;;;;;;;1.60;1.40;;;;;23.00;99147.00;;;;2061985;28;20274;-58
2022/05/24 05:17:28;;;;;;;1.40;1.30;;;;;23.00;99145.00;;;;2069841;28;20218;-59
2022/05/24 05:18:29;;;;;;;1.37;1.27;;;;;23.00;99150.00;;;;2070201;28;20222;-58
2022/05/24 05:19:29;;;;;;;1.33;1.23;;;;;22.90;99144.00;;;;2071074;28;20594;-58
2022/05/24 05:20:31;;;;;;;1.30;1.20;;;;;22.90;99153.00;;;;2070434;28;20214;-58
2022/05/24 05:21:35;;;;;;;1.40;1.30;;;;;23.00;99150.00;;;;2062275;28;20219;-59
2022/05/24 05:22:37;;;;;;;1.70;1.35;;;;;23.00;99151.00;;;;2062157;28;20246;-57
2022/05/24 05:23:37;;;;;;;1.50;1.40;;;;;22.90;99155.00;;;;2062681;28;20249;-58
2022/05/24 05:24:38;;;;;;;1.70;1.50;;;;;22.90;99161.00;;;;2070035;28;20269;-58
2022/05/24 05:25:39;;;;;;;1.45;1.33;;;;;22.90;99171.00;;;;2061516;28;20224;-59
2022/05/24 05:26:39;;;;;;;1.40;1.30;;;;;22.90;99168.00;;;;2070386;28;20210;-59
2022/05/24 05:27:39;;;;;;;1.33;1.17;;;;;23.00;99170.00;;;;2070728;28;20218;-58
2022/05/24 05:28:40;;;;;;;1.50;1.40;;;;;22.90;99184.00;;;;2070185;28;20234;-58